Alma, CO

12:05 PM MST on November 21, 2014 (GMT -0700)
Sun Mountain Subdivision | Change Station
CLOSE
Current Station
Personal Weather Station
Location: Fairplay, CO
Elevation: 11010 ft
Nearby Weather Stations
Active Advisory: Winter Storm Watch

Elev 11010 ft 39.23 °N, 106.09 °W | Updated 4 minutes ago

Partly Cloudy
Partly Cloudy
31.5 °F
Feels Like 21 °F
N
14.0
Wind Variable Wind from West

Today
High -- | Low -- °F
--% Chance of Precip.
Yesterday
High -- | Low -- °F
Precip. -- in
6:54 AM 4:45 PM
Waning Crescent, 1% visible
Pressure 30.10 in
Visibility -9999.0 miles
Clouds Mostly Cloudy 1400 ft
Windchill 21 °F
Dew Point 15 °F
Humidity 50%
Rainfall 0.00 in
Snow Depth Not available.
UV 2 out of 12
Pollen .10 out of 12
Air Quality Not available.
Flu Activity Not available.
METAR KCCU 211855Z AUTO 28012KT BKN014 M03/M09 A3010 RMK AO2 PWINO

More Conditions Fewer Conditions

Pressure 30.10 in
Visibility -9999.0 miles
Clouds Mostly Cloudy 1400 ft
Windchill 21 °F
Dew Point 15 °F
Humidity 50%
Rainfall 0.00 in
Snow Depth Not available.
UV 2 out of 12
Pollen .10 out of 12
Air Quality Not available.
Flu Activity Not available.
METAR KCCU 211855Z AUTO 28012KT BKN014 M03/M09 A3010 RMK AO2 PWINO

More Conditions Fewer Conditions

10-Day Weather Forecast

Almanac

Astronomy

Nov. 21, 2014 Rise Set
Actual Time
Civil Twilight
Nautical Twilight
Astronomical Twilight
Moon
Length of Visible Light
Length of Day
Tomorrow will be .
, % of the Moon is Illuminated

Today's Extremes

State Highs State Lows

Community

WunderPhotos

Upload Photos

1,772,698 photos uploaded!

WunderBlogs® & News

Nearby

Air Quality

  Air Quality AQ Index Pollutant
Not available.

Snow Depth

Station Depth Elevation

Earthquake Activity

City Distance Mag. Time & Date
Minimum magnitude displayed is 2.5.

Coastal Water Temperatures

Place Temperature

Nearby Weather Stations